sensor_id;sensor_type;location;lat;lon;timestamp;P1;durP1;ratioP1;P2;durP2;ratioP2
25449;SDS011;13371;52.080;5.624;2022-12-07T00:01:38;6.85;;;4.38;;
25449;SDS011;13371;52.080;5.624;2022-12-07T00:04:06;7.55;;;4.82;;
25449;SDS011;13371;52.080;5.624;2022-12-07T00:06:33;9.60;;;5.07;;
25449;SDS011;13371;52.080;5.624;2022-12-07T00:09:00;10.25;;;4.95;;
25449;SDS011;13371;52.080;5.624;2022-12-07T00:11:26;6.43;;;4.18;;
25449;SDS011;13371;52.080;5.624;2022-12-07T00:13:52;10.18;;;4.93;;
25449;SDS011;13371;52.080;5.624;2022-12-07T00:16:20;8.25;;;4.93;;
25449;SDS011;13371;52.080;5.624;2022-12-07T00:18:47;9.57;;;5.53;;
25449;SDS011;13371;52.080;5.624;2022-12-07T00:21:17;8.00;;;4.18;;
25449;SDS011;13371;52.080;5.624;2022-12-07T00:23:43;11.25;;;4.50;;
25449;SDS011;13371;52.080;5.624;2022-12-07T00:26:11;7.35;;;4.50;;
25449;SDS011;13371;52.080;5.624;2022-12-07T00:28:41;7.85;;;4.35;;
25449;SDS011;13371;52.080;5.624;2022-12-07T00:31:14;8.70;;;5.38;;
25449;SDS011;13371;52.080;5.624;2022-12-07T00:33:40;7.55;;;4.43;;
25449;SDS011;13371;52.080;5.624;2022-12-07T00:36:07;7.57;;;4.53;;
25449;SDS011;13371;52.080;5.624;2022-12-07T00:38:35;8.02;;;5.00;;
25449;SDS011;13371;52.080;5.624;2022-12-07T00:41:03;6.68;;;4.13;;
25449;SDS011;13371;52.080;5.624;2022-12-07T00:43:34;6.28;;;4.10;;
25449;SDS011;13371;52.080;5.624;2022-12-07T00:46:00;11.98;;;4.97;;
25449;SDS011;13371;52.080;5.624;2022-12-07T00:48:26;5.65;;;3.80;;
25449;SDS011;13371;52.080;5.624;2022-12-07T00:50:51;7.78;;;3.75;;
25449;SDS011;13371;52.080;5.624;2022-12-07T00:53:17;9.23;;;4.57;;
25449;SDS011;13371;52.080;5.624;2022-12-07T00:55:44;7.65;;;4.05;;
25449;SDS011;13371;52.080;5.624;2022-12-07T00:58:10;8.32;;;4.85;;
25449;SDS011;13371;52.080;5.624;2022-12-07T01:00:37;7.70;;;4.18;;
25449;SDS011;13371;52.080;5.624;2022-12-07T01:03:04;8.15;;;4.57;;
25449;SDS011;13371;52.080;5.624;2022-12-07T01:05:30;7.93;;;4.75;;
25449;SDS011;13371;52.080;5.624;2022-12-07T01:07:56;8.02;;;4.28;;
25449;SDS011;13371;52.080;5.624;2022-12-07T01:10:21;7.75;;;4.40;;
25449;SDS011;13371;52.080;5.624;2022-12-07T01:12:47;7.10;;;3.83;;
25449;SDS011;13371;52.080;5.624;2022-12-07T01:15:13;8.93;;;4.72;;
25449;SDS011;13371;52.080;5.624;2022-12-07T01:17:38;6.28;;;4.45;;
25449;SDS011;13371;52.080;5.624;2022-12-07T01:20:04;8.32;;;3.85;;
25449;SDS011;13371;52.080;5.624;2022-12-07T01:22:30;7.13;;;4.22;;
25449;SDS011;13371;52.080;5.624;2022-12-07T01:24:56;10.77;;;4.05;;
25449;SDS011;13371;52.080;5.624;2022-12-07T01:27:21;6.82;;;4.20;;
25449;SDS011;13371;52.080;5.624;2022-12-07T01:29:47;7.60;;;3.75;;
25449;SDS011;13371;52.080;5.624;2022-12-07T01:32:13;9.68;;;4.43;;
25449;SDS011;13371;52.080;5.624;2022-12-07T01:34:38;6.95;;;4.22;;
25449;SDS011;13371;52.080;5.624;2022-12-07T01:37:04;10.15;;;4.40;;
25449;SDS011;13371;52.080;5.624;2022-12-07T01:39:29;5.82;;;3.75;;
25449;SDS011;13371;52.080;5.624;2022-12-07T01:41:55;5.70;;;3.85;;
25449;SDS011;13371;52.080;5.624;2022-12-07T01:44:22;6.63;;;4.45;;
25449;SDS011;13371;52.080;5.624;2022-12-07T01:49:55;7.00;;;4.20;;
25449;SDS011;13371;52.080;5.624;2022-12-07T01:52:22;7.55;;;4.18;;
25449;SDS011;13371;52.080;5.624;2022-12-07T01:54:49;6.75;;;4.15;;
25449;SDS011;13371;52.080;5.624;2022-12-07T01:57:18;6.88;;;4.10;;
25449;SDS011;13371;52.080;5.624;2022-12-07T01:59:45;9.93;;;4.28;;
25449;SDS011;13371;52.080;5.624;2022-12-07T02:02:18;7.10;;;4.40;;
25449;SDS011;13371;52.080;5.624;2022-12-07T02:04:47;8.25;;;4.15;;
25449;SDS011;13371;52.080;5.624;2022-12-07T02:07:13;7.28;;;4.20;;
25449;SDS011;13371;52.080;5.624;2022-12-07T02:09:40;8.55;;;4.50;;
25449;SDS011;13371;52.080;5.624;2022-12-07T02:12:05;8.82;;;3.55;;
25449;SDS011;13371;52.080;5.624;2022-12-07T02:14:31;6.57;;;4.15;;
25449;SDS011;13371;52.080;5.624;2022-12-07T02:19:57;5.47;;;3.47;;
25449;SDS011;13371;52.080;5.624;2022-12-07T02:23:00;6.65;;;3.67;;
25449;SDS011;13371;52.080;5.624;2022-12-07T02:28:30;8.65;;;4.30;;
25449;SDS011;13371;52.080;5.624;2022-12-07T02:31:01;8.68;;;4.40;;
25449;SDS011;13371;52.080;5.624;2022-12-07T02:33:41;7.28;;;4.00;;
25449;SDS011;13371;52.080;5.624;2022-12-07T02:36:25;6.20;;;3.22;;
25449;SDS011;13371;52.080;5.624;2022-12-07T02:38:58;6.70;;;3.72;;
25449;SDS011;13371;52.080;5.624;2022-12-07T02:41:30;5.82;;;3.78;;
25449;SDS011;13371;52.080;5.624;2022-12-07T02:44:01;6.10;;;3.75;;
25449;SDS011;13371;52.080;5.624;2022-12-07T02:46:32;6.60;;;3.58;;
25449;SDS011;13371;52.080;5.624;2022-12-07T02:52:00;5.97;;;3.78;;
25449;SDS011;13371;52.080;5.624;2022-12-07T02:54:25;7.22;;;4.15;;
25449;SDS011;13371;52.080;5.624;2022-12-07T03:11:06;7.40;;;3.97;;
25449;SDS011;13371;52.080;5.624;2022-12-07T03:16:17;6.13;;;3.70;;
25449;SDS011;13371;52.080;5.624;2022-12-07T03:19:00;8.57;;;4.13;;
25449;SDS011;13371;52.080;5.624;2022-12-07T03:21:37;7.75;;;3.90;;
25449;SDS011;13371;52.080;5.624;2022-12-07T03:24:14;6.70;;;3.67;;
25449;SDS011;13371;52.080;5.624;2022-12-07T03:26:44;8.55;;;4.60;;
25449;SDS011;13371;52.080;5.624;2022-12-07T03:29:17;8.32;;;3.88;;
25449;SDS011;13371;52.080;5.624;2022-12-07T03:31:57;6.95;;;4.18;;
25449;SDS011;13371;52.080;5.624;2022-12-07T03:34:32;9.25;;;3.70;;
25449;SDS011;13371;52.080;5.624;2022-12-07T03:37:05;7.50;;;3.45;;
25449;SDS011;13371;52.080;5.624;2022-12-07T03:39:41;7.57;;;3.85;;
25449;SDS011;13371;52.080;5.624;2022-12-07T03:42:14;6.82;;;3.95;;
25449;SDS011;13371;52.080;5.624;2022-12-07T03:44:40;6.78;;;4.13;;
25449;SDS011;13371;52.080;5.624;2022-12-07T03:47:16;6.88;;;4.40;;
25449;SDS011;13371;52.080;5.624;2022-12-07T03:49:59;12.90;;;3.80;;
25449;SDS011;13371;52.080;5.624;2022-12-07T03:52:32;8.27;;;4.80;;
25449;SDS011;13371;52.080;5.624;2022-12-07T03:57:48;8.05;;;4.65;;
25449;SDS011;13371;52.080;5.624;2022-12-07T04:00:17;8.13;;;4.65;;
25449;SDS011;13371;52.080;5.624;2022-12-07T04:02:43;8.48;;;4.25;;
25449;SDS011;13371;52.080;5.624;2022-12-07T04:05:09;8.57;;;4.43;;
25449;SDS011;13371;52.080;5.624;2022-12-07T04:07:35;5.85;;;3.88;;
25449;SDS011;13371;52.080;5.624;2022-12-07T04:10:01;5.47;;;3.50;;
25449;SDS011;13371;52.080;5.624;2022-12-07T04:12:27;10.35;;;4.30;;
25449;SDS011;13371;52.080;5.624;2022-12-07T04:14:53;8.70;;;4.20;;
25449;SDS011;13371;52.080;5.624;2022-12-07T04:17:18;7.55;;;4.15;;
25449;SDS011;13371;52.080;5.624;2022-12-07T04:19:44;6.78;;;4.03;;
25449;SDS011;13371;52.080;5.624;2022-12-07T04:22:10;9.20;;;3.88;;
25449;SDS011;13371;52.080;5.624;2022-12-07T04:24:35;7.93;;;4.30;;
25449;SDS011;13371;52.080;5.624;2022-12-07T04:27:01;6.50;;;3.53;;
25449;SDS011;13371;52.080;5.624;2022-12-07T04:29:27;10.85;;;3.58;;
25449;SDS011;13371;52.080;5.624;2022-12-07T04:31:53;9.63;;;4.05;;
25449;SDS011;13371;52.080;5.624;2022-12-07T04:34:19;9.30;;;4.25;;
25449;SDS011;13371;52.080;5.624;2022-12-07T04:36:45;8.88;;;3.90;;
25449;SDS011;13371;52.080;5.624;2022-12-07T04:39:24;10.75;;;4.10;;
25449;SDS011;13371;52.080;5.624;2022-12-07T04:41:55;5.78;;;3.83;;
25449;SDS011;13371;52.080;5.624;2022-12-07T04:44:22;12.00;;;3.92;;
25449;SDS011;13371;52.080;5.624;2022-12-07T04:46:49;7.63;;;3.90;;
25449;SDS011;13371;52.080;5.624;2022-12-07T04:49:15;6.93;;;3.50;;
25449;SDS011;13371;52.080;5.624;2022-12-07T04:51:41;8.40;;;3.90;;
25449;SDS011;13371;52.080;5.624;2022-12-07T04:54:07;6.65;;;3.80;;
25449;SDS011;13371;52.080;5.624;2022-12-07T04:56:33;6.43;;;3.72;;
25449;SDS011;13371;52.080;5.624;2022-12-07T04:59:00;6.38;;;3.67;;
25449;SDS011;13371;52.080;5.624;2022-12-07T05:01:26;7.60;;;3.95;;
25449;SDS011;13371;52.080;5.624;2022-12-07T05:03:52;7.43;;;3.95;;
25449;SDS011;13371;52.080;5.624;2022-12-07T05:06:18;5.28;;;3.35;;
25449;SDS011;13371;52.080;5.624;2022-12-07T05:08:43;6.70;;;3.60;;
25449;SDS011;13371;52.080;5.624;2022-12-07T05:11:10;7.30;;;3.65;;
25449;SDS011;13371;52.080;5.624;2022-12-07T05:13:58;7.03;;;3.55;;
25449;SDS011;13371;52.080;5.624;2022-12-07T05:16:25;9.50;;;3.47;;
25449;SDS011;13371;52.080;5.624;2022-12-07T05:18:51;7.32;;;3.28;;
25449;SDS011;13371;52.080;5.624;2022-12-07T05:21:17;6.65;;;3.92;;
25449;SDS011;13371;52.080;5.624;2022-12-07T05:23:42;6.38;;;3.22;;
25449;SDS011;13371;52.080;5.624;2022-12-07T05:26:08;6.10;;;3.45;;
25449;SDS011;13371;52.080;5.624;2022-12-07T05:28:33;9.35;;;3.47;;
25449;SDS011;13371;52.080;5.624;2022-12-07T05:30:59;6.28;;;3.10;;
25449;SDS011;13371;52.080;5.624;2022-12-07T05:33:24;7.32;;;3.10;;
25449;SDS011;13371;52.080;5.624;2022-12-07T05:35:50;6.32;;;3.17;;
25449;SDS011;13371;52.080;5.624;2022-12-07T05:38:16;5.40;;;2.72;;
25449;SDS011;13371;52.080;5.624;2022-12-07T05:40:41;4.13;;;2.85;;
25449;SDS011;13371;52.080;5.624;2022-12-07T05:43:07;5.55;;;3.00;;
25449;SDS011;13371;52.080;5.624;2022-12-07T05:45:32;6.97;;;3.00;;
25449;SDS011;13371;52.080;5.624;2022-12-07T05:47:58;6.05;;;3.10;;
25449;SDS011;13371;52.080;5.624;2022-12-07T05:50:23;7.18;;;3.30;;
25449;SDS011;13371;52.080;5.624;2022-12-07T05:52:49;4.85;;;2.92;;
25449;SDS011;13371;52.080;5.624;2022-12-07T05:55:15;5.30;;;2.80;;
25449;SDS011;13371;52.080;5.624;2022-12-07T05:57:40;6.47;;;3.10;;
25449;SDS011;13371;52.080;5.624;2022-12-07T06:00:26;5.38;;;2.83;;
25449;SDS011;13371;52.080;5.624;2022-12-07T06:02:51;6.85;;;3.00;;
25449;SDS011;13371;52.080;5.624;2022-12-07T06:05:17;7.60;;;2.70;;
25449;SDS011;13371;52.080;5.624;2022-12-07T06:07:42;6.05;;;2.92;;
25449;SDS011;13371;52.080;5.624;2022-12-07T06:10:08;5.93;;;3.10;;
25449;SDS011;13371;52.080;5.624;2022-12-07T06:12:34;5.65;;;3.33;;
25449;SDS011;13371;52.080;5.624;2022-12-07T06:15:00;5.03;;;2.60;;
25449;SDS011;13371;52.080;5.624;2022-12-07T06:17:26;11.80;;;3.28;;
25449;SDS011;13371;52.080;5.624;2022-12-07T06:19:51;6.55;;;2.90;;
25449;SDS011;13371;52.080;5.624;2022-12-07T06:22:17;4.55;;;2.75;;
25449;SDS011;13371;52.080;5.624;2022-12-07T06:24:43;9.73;;;2.88;;
25449;SDS011;13371;52.080;5.624;2022-12-07T06:27:09;8.57;;;3.25;;
25449;SDS011;13371;52.080;5.624;2022-12-07T06:29:35;5.47;;;3.08;;
25449;SDS011;13371;52.080;5.624;2022-12-07T06:32:01;5.88;;;2.75;;
25449;SDS011;13371;52.080;5.624;2022-12-07T06:34:27;6.75;;;3.30;;
25449;SDS011;13371;52.080;5.624;2022-12-07T06:36:53;6.85;;;3.08;;
25449;SDS011;13371;52.080;5.624;2022-12-07T06:39:24;6.07;;;3.20;;
25449;SDS011;13371;52.080;5.624;2022-12-07T06:41:51;5.43;;;3.15;;
25449;SDS011;13371;52.080;5.624;2022-12-07T06:44:17;5.13;;;2.83;;
25449;SDS011;13371;52.080;5.624;2022-12-07T06:46:42;6.18;;;3.10;;
25449;SDS011;13371;52.080;5.624;2022-12-07T06:49:08;8.18;;;3.00;;
25449;SDS011;13371;52.080;5.624;2022-12-07T06:51:34;7.95;;;2.80;;
25449;SDS011;13371;52.080;5.624;2022-12-07T06:54:01;4.55;;;2.50;;
25449;SDS011;13371;52.080;5.624;2022-12-07T06:56:28;7.88;;;2.90;;
25449;SDS011;13371;52.080;5.624;2022-12-07T06:58:54;4.60;;;2.85;;
25449;SDS011;13371;52.080;5.624;2022-12-07T07:01:19;4.43;;;3.15;;
25449;SDS011;13371;52.080;5.624;2022-12-07T07:03:45;7.70;;;2.75;;
25449;SDS011;13371;52.080;5.624;2022-12-07T07:06:12;7.80;;;3.50;;
25449;SDS011;13371;52.080;5.624;2022-12-07T07:08:38;9.73;;;2.95;;
25449;SDS011;13371;52.080;5.624;2022-12-07T07:11:05;7.43;;;3.08;;
25449;SDS011;13371;52.080;5.624;2022-12-07T07:13:31;6.13;;;3.40;;
25449;SDS011;13371;52.080;5.624;2022-12-07T07:15:57;5.38;;;3.45;;
25449;SDS011;13371;52.080;5.624;2022-12-07T07:18:22;7.55;;;3.80;;
25449;SDS011;13371;52.080;5.624;2022-12-07T07:20:49;7.25;;;4.22;;
25449;SDS011;13371;52.080;5.624;2022-12-07T07:23:16;16.13;;;9.57;;
25449;SDS011;13371;52.080;5.624;2022-12-07T07:25:42;12.20;;;7.47;;
25449;SDS011;13371;52.080;5.624;2022-12-07T07:28:07;9.18;;;5.15;;
25449;SDS011;13371;52.080;5.624;2022-12-07T07:30:33;8.68;;;4.10;;
25449;SDS011;13371;52.080;5.624;2022-12-07T07:32:59;9.05;;;4.28;;
25449;SDS011;13371;52.080;5.624;2022-12-07T07:35:26;9.38;;;3.30;;
25449;SDS011;13371;52.080;5.624;2022-12-07T07:37:52;6.43;;;3.33;;
25449;SDS011;13371;52.080;5.624;2022-12-07T07:40:18;5.18;;;3.15;;
25449;SDS011;13371;52.080;5.624;2022-12-07T07:42:43;7.63;;;3.33;;
25449;SDS011;13371;52.080;5.624;2022-12-07T07:45:12;9.70;;;3.60;;
25449;SDS011;13371;52.080;5.624;2022-12-07T07:47:38;9.63;;;3.17;;
25449;SDS011;13371;52.080;5.624;2022-12-07T07:50:04;5.43;;;2.83;;
25449;SDS011;13371;52.080;5.624;2022-12-07T07:52:30;7.05;;;3.90;;
25449;SDS011;13371;52.080;5.624;2022-12-07T07:54:56;5.85;;;3.42;;
25449;SDS011;13371;52.080;5.624;2022-12-07T07:57:21;9.35;;;3.63;;
25449;SDS011;13371;52.080;5.624;2022-12-07T07:59:47;8.85;;;3.20;;
25449;SDS011;13371;52.080;5.624;2022-12-07T08:02:16;7.53;;;3.75;;
25449;SDS011;13371;52.080;5.624;2022-12-07T08:04:43;9.52;;;4.32;;
25449;SDS011;13371;52.080;5.624;2022-12-07T08:07:10;6.85;;;3.53;;
25449;SDS011;13371;52.080;5.624;2022-12-07T08:09:35;7.15;;;3.63;;
25449;SDS011;13371;52.080;5.624;2022-12-07T08:12:01;6.40;;;3.47;;
25449;SDS011;13371;52.080;5.624;2022-12-07T08:14:27;21.65;;;11.30;;
25449;SDS011;13371;52.080;5.624;2022-12-07T08:16:53;42.42;;;18.60;;
25449;SDS011;13371;52.080;5.624;2022-12-07T08:19:19;18.33;;;7.68;;
25449;SDS011;13371;52.080;5.624;2022-12-07T08:21:44;21.52;;;9.15;;
25449;SDS011;13371;52.080;5.624;2022-12-07T08:24:10;24.42;;;8.73;;
25449;SDS011;13371;52.080;5.624;2022-12-07T08:26:36;17.65;;;8.60;;
25449;SDS011;13371;52.080;5.624;2022-12-07T08:29:01;11.68;;;6.63;;
25449;SDS011;13371;52.080;5.624;2022-12-07T08:31:27;14.18;;;6.90;;
25449;SDS011;13371;52.080;5.624;2022-12-07T08:33:53;20.00;;;7.45;;
25449;SDS011;13371;52.080;5.624;2022-12-07T08:36:19;12.88;;;6.90;;
25449;SDS011;13371;52.080;5.624;2022-12-07T08:38:46;8.13;;;5.30;;
25449;SDS011;13371;52.080;5.624;2022-12-07T08:41:12;11.43;;;6.63;;
25449;SDS011;13371;52.080;5.624;2022-12-07T08:43:37;10.65;;;5.22;;
25449;SDS011;13371;52.080;5.624;2022-12-07T08:46:10;8.27;;;4.65;;
25449;SDS011;13371;52.080;5.624;2022-12-07T08:48:46;7.22;;;4.25;;
25449;SDS011;13371;52.080;5.624;2022-12-07T08:51:17;6.22;;;3.28;;
25449;SDS011;13371;52.080;5.624;2022-12-07T08:53:44;8.05;;;3.53;;
25449;SDS011;13371;52.080;5.624;2022-12-07T08:56:10;5.78;;;3.25;;
25449;SDS011;13371;52.080;5.624;2022-12-07T08:58:36;9.05;;;4.13;;
25449;SDS011;13371;52.080;5.624;2022-12-07T09:01:03;11.90;;;5.75;;
25449;SDS011;13371;52.080;5.624;2022-12-07T09:03:29;13.68;;;7.32;;
25449;SDS011;13371;52.080;5.624;2022-12-07T09:05:55;15.95;;;6.60;;
25449;SDS011;13371;52.080;5.624;2022-12-07T09:08:21;12.88;;;5.07;;
25449;SDS011;13371;52.080;5.624;2022-12-07T09:10:50;10.05;;;4.95;;
25449;SDS011;13371;52.080;5.624;2022-12-07T09:13:15;8.70;;;3.83;;
25449;SDS011;13371;52.080;5.624;2022-12-07T09:15:41;7.13;;;2.85;;
25449;SDS011;13371;52.080;5.624;2022-12-07T09:18:07;6.07;;;3.58;;
25449;SDS011;13371;52.080;5.624;2022-12-07T09:20:32;6.40;;;2.45;;
25449;SDS011;13371;52.080;5.624;2022-12-07T09:22:58;5.88;;;2.47;;
25449;SDS011;13371;52.080;5.624;2022-12-07T09:25:24;10.25;;;2.42;;
25449;SDS011;13371;52.080;5.624;2022-12-07T09:27:56;6.80;;;2.50;;
25449;SDS011;13371;52.080;5.624;2022-12-07T09:30:23;5.53;;;2.97;;
25449;SDS011;13371;52.080;5.624;2022-12-07T09:32:49;5.80;;;2.20;;
25449;SDS011;13371;52.080;5.624;2022-12-07T09:35:14;6.47;;;2.30;;
25449;SDS011;13371;52.080;5.624;2022-12-07T09:37:40;7.25;;;2.60;;
25449;SDS011;13371;52.080;5.624;2022-12-07T09:40:06;5.40;;;2.20;;
25449;SDS011;13371;52.080;5.624;2022-12-07T09:42:35;12.07;;;2.78;;
25449;SDS011;13371;52.080;5.624;2022-12-07T09:45:05;13.77;;;2.10;;
25449;SDS011;13371;52.080;5.624;2022-12-07T09:47:36;8.15;;;1.88;;
25449;SDS011;13371;52.080;5.624;2022-12-07T09:50:04;8.52;;;1.80;;
25449;SDS011;13371;52.080;5.624;2022-12-07T09:52:37;5.70;;;1.38;;
25449;SDS011;13371;52.080;5.624;2022-12-07T09:55:02;6.75;;;1.95;;
25449;SDS011;13371;52.080;5.624;2022-12-07T09:57:29;7.18;;;2.13;;
25449;SDS011;13371;52.080;5.624;2022-12-07T09:59:58;9.40;;;2.25;;
25449;SDS011;13371;52.080;5.624;2022-12-07T10:02:37;7.03;;;2.20;;
25449;SDS011;13371;52.080;5.624;2022-12-07T10:05:10;10.48;;;2.80;;
25449;SDS011;13371;52.080;5.624;2022-12-07T10:07:39;9.02;;;2.00;;
25449;SDS011;13371;52.080;5.624;2022-12-07T10:10:15;3.88;;;1.58;;
25449;SDS011;13371;52.080;5.624;2022-12-07T10:12:55;7.82;;;2.53;;
25449;SDS011;13371;52.080;5.624;2022-12-07T10:15:42;5.97;;;1.70;;
25449;SDS011;13371;52.080;5.624;2022-12-07T10:23:41;4.28;;;1.33;;
25449;SDS011;13371;52.080;5.624;2022-12-07T10:26:27;6.85;;;1.80;;
25449;SDS011;13371;52.080;5.624;2022-12-07T10:28:58;5.00;;;1.45;;
25449;SDS011;13371;52.080;5.624;2022-12-07T10:31:25;3.20;;;1.38;;
25449;SDS011;13371;52.080;5.624;2022-12-07T10:33:52;6.50;;;1.75;;
25449;SDS011;13371;52.080;5.624;2022-12-07T10:36:38;6.68;;;1.67;;
25449;SDS011;13371;52.080;5.624;2022-12-07T10:39:13;9.45;;;1.80;;
25449;SDS011;13371;52.080;5.624;2022-12-07T10:41:58;6.30;;;1.75;;
25449;SDS011;13371;52.080;5.624;2022-12-07T10:44:27;7.47;;;1.58;;
25449;SDS011;13371;52.080;5.624;2022-12-07T10:47:09;7.28;;;1.52;;
25449;SDS011;13371;52.080;5.624;2022-12-07T11:01:18;7.40;;;1.92;;
25449;SDS011;13371;52.080;5.624;2022-12-07T11:06:45;9.52;;;2.67;;
25449;SDS011;13371;52.080;5.624;2022-12-07T11:12:30;6.53;;;1.77;;
25449;SDS011;13371;52.080;5.624;2022-12-07T11:15:01;5.82;;;1.25;;
25449;SDS011;13371;52.080;5.624;2022-12-07T11:20:19;7.03;;;2.28;;
25449;SDS011;13371;52.080;5.624;2022-12-07T11:33:53;5.78;;;1.63;;
25449;SDS011;13371;52.080;5.624;2022-12-07T11:36:38;4.50;;;1.25;;
25449;SDS011;13371;52.080;5.624;2022-12-07T11:39:51;5.68;;;1.65;;
25449;SDS011;13371;52.080;5.624;2022-12-07T11:42:06;5.53;;;1.40;;
25449;SDS011;13371;52.080;5.624;2022-12-07T11:44:53;7.43;;;1.55;;
25449;SDS011;13371;52.080;5.624;2022-12-07T11:47:30;7.43;;;1.55;;
25449;SDS011;13371;52.080;5.624;2022-12-07T12:03:40;5.82;;;1.42;;
25449;SDS011;13371;52.080;5.624;2022-12-07T12:06:10;5.15;;;1.67;;
25449;SDS011;13371;52.080;5.624;2022-12-07T12:08:39;5.60;;;1.60;;
25449;SDS011;13371;52.080;5.624;2022-12-07T12:18:59;5.43;;;1.55;;
25449;SDS011;13371;52.080;5.624;2022-12-07T12:21:47;7.75;;;1.60;;
25449;SDS011;13371;52.080;5.624;2022-12-07T12:24:19;8.75;;;2.00;;
25449;SDS011;13371;52.080;5.624;2022-12-07T12:26:56;9.57;;;1.50;;
25449;SDS011;13371;52.080;5.624;2022-12-07T12:29:36;6.15;;;1.38;;
25449;SDS011;13371;52.080;5.624;2022-12-07T12:32:13;10.20;;;1.20;;
25449;SDS011;13371;52.080;5.624;2022-12-07T12:42:50;6.63;;;1.08;;
25449;SDS011;13371;52.080;5.624;2022-12-07T12:45:28;6.93;;;1.48;;
25449;SDS011;13371;52.080;5.624;2022-12-07T12:50:34;6.15;;;1.17;;
25449;SDS011;13371;52.080;5.624;2022-12-07T12:53:02;5.57;;;1.40;;
25449;SDS011;13371;52.080;5.624;2022-12-07T12:55:46;6.80;;;1.35;;
25449;SDS011;13371;52.080;5.624;2022-12-07T12:58:28;10.95;;;1.77;;
25449;SDS011;13371;52.080;5.624;2022-12-07T13:04:12;4.93;;;1.15;;
25449;SDS011;13371;52.080;5.624;2022-12-07T13:06:42;9.43;;;1.60;;
25449;SDS011;13371;52.080;5.624;2022-12-07T13:09:17;6.80;;;1.50;;
25449;SDS011;13371;52.080;5.624;2022-12-07T13:12:12;9.10;;;1.45;;
25449;SDS011;13371;52.080;5.624;2022-12-07T13:14:52;7.38;;;1.60;;
25449;SDS011;13371;52.080;5.624;2022-12-07T13:20:01;5.20;;;1.40;;
25449;SDS011;13371;52.080;5.624;2022-12-07T13:25:19;4.18;;;1.40;;
25449;SDS011;13371;52.080;5.624;2022-12-07T13:27:43;4.50;;;1.33;;
25449;SDS011;13371;52.080;5.624;2022-12-07T13:30:23;13.30;;;1.83;;
25449;SDS011;13371;52.080;5.624;2022-12-07T13:32:53;10.98;;;2.63;;
25449;SDS011;13371;52.080;5.624;2022-12-07T13:35:27;7.00;;;1.55;;
25449;SDS011;13371;52.080;5.624;2022-12-07T13:38:02;7.47;;;1.60;;
25449;SDS011;13371;52.080;5.624;2022-12-07T13:40:30;6.30;;;1.80;;
25449;SDS011;13371;52.080;5.624;2022-12-07T13:42:57;4.55;;;1.40;;
25449;SDS011;13371;52.080;5.624;2022-12-07T13:45:31;3.15;;;0.85;;
25449;SDS011;13371;52.080;5.624;2022-12-07T13:48:35;5.18;;;1.05;;
25449;SDS011;13371;52.080;5.624;2022-12-07T13:51:14;4.03;;;1.02;;
25449;SDS011;13371;52.080;5.624;2022-12-07T13:53:47;4.22;;;1.15;;
25449;SDS011;13371;52.080;5.624;2022-12-07T13:56:13;5.63;;;1.20;;
25449;SDS011;13371;52.080;5.624;2022-12-07T13:58:40;4.68;;;1.63;;
25449;SDS011;13371;52.080;5.624;2022-12-07T14:01:06;7.35;;;1.80;;
25449;SDS011;13371;52.080;5.624;2022-12-07T14:03:32;7.78;;;2.13;;
25449;SDS011;13371;52.080;5.624;2022-12-07T14:06:12;6.30;;;2.42;;
25449;SDS011;13371;52.080;5.624;2022-12-07T14:08:41;9.98;;;2.90;;
25449;SDS011;13371;52.080;5.624;2022-12-07T14:11:09;7.38;;;2.95;;
25449;SDS011;13371;52.080;5.624;2022-12-07T14:16:34;4.75;;;2.22;;
25449;SDS011;13371;52.080;5.624;2022-12-07T14:19:03;5.85;;;2.20;;
25449;SDS011;13371;52.080;5.624;2022-12-07T14:21:31;6.00;;;1.85;;
25449;SDS011;13371;52.080;5.624;2022-12-07T14:24:09;8.75;;;3.20;;
25449;SDS011;13371;52.080;5.624;2022-12-07T14:26:35;9.85;;;4.50;;
25449;SDS011;13371;52.080;5.624;2022-12-07T14:31:49;13.25;;;7.00;;
25449;SDS011;13371;52.080;5.624;2022-12-07T14:34:16;8.57;;;4.07;;
25449;SDS011;13371;52.080;5.624;2022-12-07T14:36:41;8.95;;;3.72;;
25449;SDS011;13371;52.080;5.624;2022-12-07T14:39:07;6.05;;;2.08;;
25449;SDS011;13371;52.080;5.624;2022-12-07T14:41:33;3.38;;;1.50;;
25449;SDS011;13371;52.080;5.624;2022-12-07T14:44:17;6.90;;;1.88;;
25449;SDS011;13371;52.080;5.624;2022-12-07T14:46:44;10.35;;;2.58;;
25449;SDS011;13371;52.080;5.624;2022-12-07T14:49:10;7.18;;;2.60;;
25449;SDS011;13371;52.080;5.624;2022-12-07T14:51:36;8.80;;;3.08;;
25449;SDS011;13371;52.080;5.624;2022-12-07T14:54:04;4.53;;;2.15;;
25449;SDS011;13371;52.080;5.624;2022-12-07T14:56:31;9.88;;;2.15;;
25449;SDS011;13371;52.080;5.624;2022-12-07T14:58:56;6.30;;;2.40;;
25449;SDS011;13371;52.080;5.624;2022-12-07T15:01:22;7.07;;;2.20;;
25449;SDS011;13371;52.080;5.624;2022-12-07T15:03:50;6.88;;;2.20;;
25449;SDS011;13371;52.080;5.624;2022-12-07T15:06:17;7.65;;;2.10;;
25449;SDS011;13371;52.080;5.624;2022-12-07T15:08:43;5.70;;;1.85;;
25449;SDS011;13371;52.080;5.624;2022-12-07T15:11:11;6.72;;;2.13;;
25449;SDS011;13371;52.080;5.624;2022-12-07T15:13:38;4.15;;;2.03;;
25449;SDS011;13371;52.080;5.624;2022-12-07T15:16:22;4.68;;;2.30;;
25449;SDS011;13371;52.080;5.624;2022-12-07T15:18:47;5.55;;;2.33;;
25449;SDS011;13371;52.080;5.624;2022-12-07T15:21:13;4.05;;;2.20;;
25449;SDS011;13371;52.080;5.624;2022-12-07T15:23:39;6.50;;;2.90;;
25449;SDS011;13371;52.080;5.624;2022-12-07T15:26:05;9.10;;;2.70;;
25449;SDS011;13371;52.080;5.624;2022-12-07T15:28:30;8.98;;;2.50;;
25449;SDS011;13371;52.080;5.624;2022-12-07T15:30:56;9.77;;;2.80;;
25449;SDS011;13371;52.080;5.624;2022-12-07T15:33:22;7.25;;;3.15;;
25449;SDS011;13371;52.080;5.624;2022-12-07T15:35:47;11.63;;;6.05;;
25449;SDS011;13371;52.080;5.624;2022-12-07T15:38:13;25.60;;;13.07;;
25449;SDS011;13371;52.080;5.624;2022-12-07T15:40:38;27.65;;;14.27;;
25449;SDS011;13371;52.080;5.624;2022-12-07T15:43:04;10.35;;;3.58;;
25449;SDS011;13371;52.080;5.624;2022-12-07T15:45:30;7.22;;;2.38;;
25449;SDS011;13371;52.080;5.624;2022-12-07T15:47:55;4.95;;;2.10;;
25449;SDS011;13371;52.080;5.624;2022-12-07T15:50:21;7.40;;;2.03;;
25449;SDS011;13371;52.080;5.624;2022-12-07T15:52:47;9.95;;;2.03;;
25449;SDS011;13371;52.080;5.624;2022-12-07T15:55:13;8.98;;;2.17;;
25449;SDS011;13371;52.080;5.624;2022-12-07T15:57:40;10.88;;;3.30;;
25449;SDS011;13371;52.080;5.624;2022-12-07T16:00:06;6.65;;;2.33;;
25449;SDS011;13371;52.080;5.624;2022-12-07T16:02:34;7.13;;;2.75;;
25449;SDS011;13371;52.080;5.624;2022-12-07T16:05:01;7.60;;;2.88;;
25449;SDS011;13371;52.080;5.624;2022-12-07T16:07:26;8.90;;;2.47;;
25449;SDS011;13371;52.080;5.624;2022-12-07T16:09:52;12.90;;;3.45;;
25449;SDS011;13371;52.080;5.624;2022-12-07T16:12:18;11.15;;;3.90;;
25449;SDS011;13371;52.080;5.624;2022-12-07T16:14:43;7.10;;;3.10;;
25449;SDS011;13371;52.080;5.624;2022-12-07T16:17:09;10.75;;;4.30;;
25449;SDS011;13371;52.080;5.624;2022-12-07T16:19:35;5.65;;;2.63;;
25449;SDS011;13371;52.080;5.624;2022-12-07T16:22:02;5.88;;;2.35;;
25449;SDS011;13371;52.080;5.624;2022-12-07T16:24:29;11.07;;;4.00;;
25449;SDS011;13371;52.080;5.624;2022-12-07T16:26:54;10.57;;;4.13;;
25449;SDS011;13371;52.080;5.624;2022-12-07T16:29:21;12.30;;;4.03;;
25449;SDS011;13371;52.080;5.624;2022-12-07T16:31:47;13.05;;;3.95;;
25449;SDS011;13371;52.080;5.624;2022-12-07T16:34:14;11.80;;;3.97;;
25449;SDS011;13371;52.080;5.624;2022-12-07T16:36:39;8.57;;;3.60;;
25449;SDS011;13371;52.080;5.624;2022-12-07T16:39:05;9.00;;;4.53;;
25449;SDS011;13371;52.080;5.624;2022-12-07T16:41:31;11.23;;;3.78;;
25449;SDS011;13371;52.080;5.624;2022-12-07T16:43:56;9.50;;;4.07;;
25449;SDS011;13371;52.080;5.624;2022-12-07T16:46:26;10.63;;;4.07;;
25449;SDS011;13371;52.080;5.624;2022-12-07T16:48:52;6.20;;;2.80;;
25449;SDS011;13371;52.080;5.624;2022-12-07T16:51:17;6.82;;;2.75;;